Nearby METAR Reports

 

KCFV - Coffeyville, Kansas, USA
Distance from station: ENE 93mi, 150km
Updated: Fri, 26-May-2017 6:52pm CDT
Mostly cloudy
Mostly cloudy
 Wind from E
Wind: E 6 mph , 9 km/h
Temperature: 84°F , 29°C
Heat Index: 87°F , 31°C
Dew Point: 68°F , 20°C
Humidity: 58%
Barometer: 1007.5 hPa
Clouds: Mostly cloudy
Visibility: 10 miles , 16 km
Cloud details: Mostly cloudy 5000 ft
2017/05/26 23:52 KCFV 262352Z AUTO 09005KT 10SM BKN050 29/20 A2975 RMK AO2 SLP069 T02940200 10317 20278 51004
KIDP - Independence, Kansas, USA
Distance from station: NE 86mi, 138km
Updated: Fri, 26-May-2017 7:15pm CDT
Clear
Clear
 Wind from E
Wind: E 5 mph , 7 km/h
Temperature: 82°F , 28°C
Heat Index: 83°F , 28°C
Dew Point: 63°F , 17°C
Humidity: 51%
Barometer: 1007.8 hPa
Clouds: Clear
Visibility: 10 miles , 16 km
2017/05/27 00:15 KIDP 270015Z AUTO 09004KT 10SM CLR 28/17 A2976 RMK AO2
KIAB - Mcconnell Afb, Kansas, USA
Distance from station: N 84mi, 135km
Updated: Fri, 26-May-2017 5:58pm CDT
NOT Current
Clear
Clear
 Wind from NE
Wind: NE 6 mph , 9 km/h
Temperature: 86°F , 30°C
Heat Index: 85°F , 29°C
Dew Point: 59°F , 15°C
Humidity: 40%
Barometer: 1008.5 hPa
Clouds: Clear
Visibility: 10 miles , 16 km
2017/05/26 22:58 KIAB 262258Z AUTO 04005KT 10SM CLR 30/15 A2978 RMK AO2 SLP075 T03000147
 
KICT - Wichita, Kansas, USA
Distance from station: NNW 88mi, 142km
Updated: Fri, 26-May-2017 6:53pm CDT
Few Clouds
Few Clouds
 Wind from NE
Wind: NE 10 mph , 17 km/h
Temperature: 84°F , 29°C
Heat Index: 84°F , 29°C
Dew Point: 61°F , 16°C
Humidity: 45%
Barometer: 1008.1 hPa
Clouds: Few Clouds
Visibility: 10 miles , 16 km
Cloud details: Few Clouds 5000 ft
Few Clouds 25000 ft
2017/05/26 23:53 KICT 262353Z 05009KT 10SM FEW050 FEW250 29/16 A2977 RMK AO2 SLP069 T02890161 10306 20278 58002
KAAO - Wichita/Jabara, Kansas, USA
Distance from station: N 93mi, 149km
Updated: Fri, 26-May-2017 6:54pm CDT
Clear
Clear
 Wind from NE
Wind: NE 8 mph , 13 km/h
Temperature: 82°F , 28°C
Heat Index: 83°F , 28°C
Dew Point: 63°F , 17°C
Humidity: 51%
Barometer: 1008.5 hPa
Clouds: Clear
Visibility: 10 miles , 16 km
2017/05/26 23:54 KAAO 262354Z AUTO 04007KT 10SM CLR 28/17 A2978 RMK AO2 SLP074 T02830167 10300 20283 50000
KWLD - Winfield/Arkansa, Kansas, USA
Distance from station: N 52mi, 84km
Updated: Fri, 26-May-2017 6:54pm CDT
Clear
Clear
 Wind from ENE
Wind: ENE 8 mph , 13 km/h
Temperature: 84°F , 29°C
Heat Index: 84°F , 29°C
Dew Point: 61°F , 16°C
Humidity: 45%
Barometer: 1008.1 hPa
Clouds: Clear
Visibility: 10 miles , 16 km
2017/05/26 23:54 KWLD 262354Z AUTO 06007KT 10SM CLR 29/16 A2977 RMK AO2 SLP071 T02940156 10306 20283 58000
 
KAVK - Alva, Oklahoma, USA
Distance from station: WNW 94mi, 152km
Updated: Fri, 26-May-2017 7:15pm CDT
Clear
Clear
 Wind from E
Wind: E 9 mph , 15 km/h
Temperature: 84°F , 29°C
Heat Index: 83°F , 28°C
Dew Point: 57°F , 14°C
Humidity: 40%
Barometer: 1008.5 hPa
Clouds: Clear
Visibility: 10 miles , 16 km
2017/05/27 00:15 KAVK 270015Z AUTO 08008KT 10SM CLR 29/14 A2978 RMK AO2
KBVO - Bartlesville, Oklahoma, USA
Distance from station: ENE 61mi, 98km
Updated: Fri, 26-May-2017 6:53pm CDT
Mostly cloudy
Mostly cloudy
 Wind from N
Wind: N 7 mph , 11 km/h
Temperature: 84°F , 29°C
Heat Index: 86°F , 30°C
Dew Point: 66°F , 19°C
Humidity: 55%
Barometer: 1007.5 hPa
Clouds: Mostly cloudy
Visibility: 10 miles , 16 km
Cloud details: Mostly cloudy 5000 ft
2017/05/26 23:53 KBVO 262353Z AUTO 01006KT 10SM BKN050 29/19 A2975 RMK AO2 SLP065 T02940189 10317 20283 50002
KBKN - Blackwell, Oklahoma, USA
Distance from station: NW 29mi, 47km
Updated: Fri, 26-May-2017 7:15pm CDT
Few Clouds
Few Clouds
 Wind from ENE
Wind: ENE 9 mph , 15 km/h
Temperature: 88°F , 31°C
Heat Index: 89°F , 32°C
Dew Point: 63°F , 17°C
Humidity: 43%
Barometer: 1008.5 hPa
Clouds: Few Clouds
Visibility: 10 miles , 16 km
Cloud details: Few Clouds 6000 ft
2017/05/27 00:15 KBKN 270015Z AUTO 06008KT 10SM FEW060 31/17 A2978 RMK AO2
 
KGCM - Claremore, Oklahoma, USA
Distance from station: E 86mi, 138km
Updated: Fri, 26-May-2017 7:15pm CDT
Clear
Clear
 Wind from N
Wind: N 6 mph , 9 km/h
Temperature: 82°F , 28°C
Heat Index: 86°F , 30°C
Dew Point: 70°F , 21°C
Humidity: 66%
Barometer: 1007.5 hPa
Clouds: Clear
Visibility: 10 miles , 16 km
2017/05/27 00:15 KGCM 270015Z AUTO 01005KT 10SM CLR 28/21 A2975 RMK AO2
KCQB - Chandler, Oklahoma, USA
Distance from station: SSE 50mi, 80km
Updated: Fri, 26-May-2017 7:15pm CDT
Partly cloudy
Partly cloudy
 Wind from NE
Wind: NE 5 mph , 7 km/h
Temperature: 86°F , 30°C
Heat Index: 91°F , 33°C
Dew Point: 70°F , 21°C
Humidity: 59%
Barometer: 1007.5 hPa
Clouds: Partly cloudy
Visibility: 10 miles , 16 km
Cloud details: Partly cloudy 4600 ft
2017/05/27 00:15 KCQB 270015Z AUTO 04004KT 10SM SCT046 30/21 A2975 RMK AO2 T03000214
KCUH - Cushing, Oklahoma, USA
Distance from station: SSE 35mi, 57km
Updated: Fri, 26-May-2017 7:15pm CDT
Clear
Clear
 Wind from NE
Wind: NE 5 mph , 7 km/h
Temperature: 84°F , 29°C
Heat Index: 87°F , 31°C
Dew Point: 68°F , 20°C
Humidity: 58%
Barometer: 1007.1 hPa
Clouds: Clear
Visibility: 10 miles , 16 km
2017/05/27 00:15 KCUH 270015Z AUTO 04004KT 10SM CLR 29/20 A2974 RMK AO2 T02920204
 
KRQO - El Reno Muni, Oklahoma, USA
Distance from station: SW 85mi, 137km
Updated: Fri, 26-May-2017 7:15pm CDT
Clear
Clear
 Wind from NE
Wind: NE 6 mph , 9 km/h
Temperature: 86°F , 30°C
Heat Index: 88°F , 31°C
Dew Point: 64°F , 18°C
Humidity: 49%
Barometer: 1008.5 hPa
Clouds: Clear
Visibility: 10 miles , 16 km
2017/05/27 00:15 KRQO 270015Z AUTO 05005KT 10SM CLR 30/18 A2978 RMK AO2 T03010182
KEND - Enid/Vance Afb, Oklahoma, USA
Distance from station: W 50mi, 81km
Updated: Fri, 26-May-2017 5:58pm CDT
NOT Current
Clear
Clear
 Wind from NE
Wind: NE 8 mph , 13 km/h
Temperature: 90°F , 32°C
Heat Index: 91°F , 33°C
Dew Point: 63°F , 17°C
Humidity: 41%
Barometer: 1007.5 hPa
Clouds: Clear
Visibility: 10 miles , 16 km
2017/05/26 22:58 KEND 262258Z AUTO 05007KT 10SM CLR 32/17 A2975 RMK AO2 DZB2158 SLP063 P0000 T03170166 $
KWDG - Enid/Woodring, Oklahoma, USA
Distance from station: W 42mi, 67km
Updated: Fri, 26-May-2017 6:48pm CDT
Clear
Clear
 Wind from ENE
Wind: ENE 7 mph , 11 km/h
Temperature: 90°F , 32°C
Heat Index: 91°F , 33°C
Dew Point: 63°F , 17°C
Humidity: 41%
Barometer: 1007.1 hPa
Clouds: Clear
Visibility: 10 miles , 16 km
2017/05/26 23:48 KWDG 262348Z 07006KT 10SM SKC 32/17 A2974
 
KGOK - Guthrie, Oklahoma, USA
Distance from station: SSW 44mi, 71km
Updated: Fri, 26-May-2017 6:53pm CDT
Few Clouds
Few Clouds
 Wind from E
Wind: E 6 mph , 9 km/h
Temperature: 84°F , 29°C
Heat Index: 86°F , 30°C
Dew Point: 66°F , 19°C
Humidity: 55%
Barometer: 1007.5 hPa
Clouds: Few Clouds
Visibility: 10 miles , 16 km
Cloud details: Few Clouds 5000 ft
2017/05/26 23:53 KGOK 262353Z AUTO 08005KT 10SM FEW050 29/19 A2975 RMK AO2 SLP062 T02940194 10317 20289 55002
KOUN - Norman/Westheime, Oklahoma, USA
Distance from station: SSW 84mi, 136km
Updated: Fri, 26-May-2017 7:15pm CDT
Clear
Clear
 Wind from calm
Wind: Calm
Temperature: 86°F , 30°C
Heat Index: 88°F , 31°C
Dew Point: 66°F , 19°C
Humidity: 52%
Barometer: 1007.5 hPa
Clouds: Clear
Visibility: 10 miles , 16 km
2017/05/27 00:15 KOUN 270015Z AUTO 00000KT 10SM CLR 30/19 A2975 RMK AO2
KOKC - Oklahoma City, Oklahoma, USA
Distance from station: SSW 78mi, 126km
Updated: Fri, 26-May-2017 6:52pm CDT
Partly cloudy
Partly cloudy
 Wind from E
Wind: E 6 mph , 9 km/h
Temperature: 86°F , 30°C
Heat Index: 88°F , 31°C
Dew Point: 66°F , 19°C
Humidity: 52%
Barometer: 1007.5 hPa
Clouds: Partly cloudy
Visibility: 10 miles , 16 km
Cloud details: Few Clouds 5000 ft
Partly cloudy 25000 ft
2017/05/26 23:52 KOKC 262352Z 09005KT 10SM FEW050 SCT250 30/19 A2975 RMK AO2 SLP056 T03000189 10317 20294 58003
 
KPWA - Okla City/Wiley, Oklahoma, USA
Distance from station: SSW 70mi, 113km
Updated: Fri, 26-May-2017 6:53pm CDT
Clear
Clear
 Wind from N
Wind: N 5 mph , 7 km/h
Temperature: 88°F , 31°C
Heat Index: 91°F , 33°C
Dew Point: 66°F , 19°C
Humidity: 49%
Barometer: 1007.5 hPa
Clouds: Clear
Visibility: 10 miles , 16 km
2017/05/26 23:53 KPWA 262353Z 01004KT 10SM CLR 31/19 A2975 RMK AO2 SLP055 T03110194 10322 20300 56003
KRCE - Okla City/Page, Oklahoma, USA
Distance from station: SW 78mi, 126km
Updated: Fri, 26-May-2017 7:15pm CDT
Clear
Clear
 Wind from N
Wind: N 6 mph , 9 km/h
Temperature: 84°F , 29°C
Heat Index: 86°F , 30°C
Dew Point: 66°F , 19°C
Humidity: 55%
Barometer: 1008.1 hPa
Clouds: Clear
Visibility: 10 miles , 16 km
2017/05/27 00:15 KRCE 270015Z AUTO 01005KT 10SM CLR 29/19 A2977 RMK AO2
KOKM - Okmulgee, Oklahoma, USA
Distance from station: SE 79mi, 127km
Updated: Fri, 26-May-2017 7:15pm CDT
Clear
Clear
 Wind from WNW
Wind: WNW 7 mph , 11 km/h
Temperature: 88°F , 31°C
Heat Index: 95°F , 35°C
Dew Point: 72°F , 22°C
Humidity: 59%
Barometer: 1006.8 hPa
Clouds: Clear
Visibility: 10 miles , 16 km
2017/05/27 00:15 KOKM 270015Z AUTO 29006KT 10SM CLR 31/22 A2973 RMK AO2 T03100216
 
KPNC - Ponca City, Oklahoma, USA
Distance from station: N 22mi, 36km
Updated: Fri, 26-May-2017 6:53pm CDT
Clear
Clear
 Wind from E
Wind: E 10 mph , 17 km/h
Temperature: 86°F , 30°C
Heat Index: 87°F , 31°C
Dew Point: 63°F , 17°C
Humidity: 46%
Barometer: 1007.5 hPa
Clouds: Clear
Visibility: 10 miles , 16 km
2017/05/26 23:53 KPNC 262353Z AUTO 10009KT 10SM CLR 30/17 A2975 RMK AO2 SLP061 T03000172 10322 20294 58001
KSNL - Shawnee, Oklahoma, USA
Distance from station: S 74mi, 119km
Updated: Fri, 26-May-2017 7:15pm CDT
Clear
Clear
 Wind from NNE
Wind: NNE 3 mph , 6 km/h
Temperature: 86°F , 30°C
Heat Index: 88°F , 31°C
Dew Point: 66°F , 19°C
Humidity: 52%
Barometer: 1007.1 hPa
Clouds: Clear
Visibility: 10 miles , 16 km
2017/05/27 00:15 KSNL 270015Z AUTO 02003KT 10SM CLR 30/19 A2974 RMK AO2 T03030194
KSWO - Stillwater, Oklahoma, USA
Distance from station: S 17mi, 28km
Updated: Fri, 26-May-2017 6:53pm CDT
Few Clouds
Few Clouds
 Wind from ENE
Wind: ENE 5 mph , 7 km/h
Temperature: 88°F , 31°C
Heat Index: 90°F , 32°C
Dew Point: 64°F , 18°C
Humidity: 46%
Barometer: 1007.5 hPa
Clouds: Few Clouds
Visibility: 10 miles , 16 km
Cloud details: Few Clouds 5500 ft
2017/05/26 23:53 KSWO 262353Z 07004KT 10SM FEW055 31/18 A2975 RMK AO2 SLP060 T03060178 10328 20300 56001
 
KTIK - Tinker Afb, Oklahoma, USA
Distance from station: SSW 72mi, 115km
Updated: Fri, 26-May-2017 6:58pm CDT
Clear
Clear
 Wind from E
Wind: E 5 mph , 7 km/h
Temperature: 86°F , 30°C
Heat Index: 89°F , 32°C
Dew Point: 68°F , 20°C
Humidity: 55%
Barometer: 1007.1 hPa
Clouds: Clear
Visibility: 10 miles , 16 km
2017/05/26 23:58 KTIK 262358Z AUTO 10004KT 10SM CLR 30/20 A2974 RMK AO2 SLP063 T02990202 10316 20292 57002 $
KTUL - Tulsa, Oklahoma, USA
Distance from station: ESE 65mi, 105km
Updated: Fri, 26-May-2017 6:53pm CDT
Partly cloudy
Partly cloudy
 Wind from N
Wind: N 8 mph , 13 km/h
Temperature: 88°F , 31°C
Heat Index: 95°F , 35°C
Dew Point: 72°F , 22°C
Humidity: 59%
Barometer: 1006.4 hPa
Clouds: Partly cloudy
Visibility: 10 miles , 16 km
Cloud details: Few Clouds 5000 ft
Partly cloudy 25000 ft
2017/05/26 23:53 KTUL 262353Z 35007KT 10SM FEW050 SCT250 31/22 A2972 RMK AO2 SLP054 T03060222 10328 20300 50002